createdAt,value
2023-03-06T08:08:08.637Z,4.90
2023-03-06T08:13:24.591Z,5.23
2023-03-06T08:18:58.486Z,5.51
2023-03-06T08:21:29.050Z,5.54
2023-03-06T08:23:56.877Z,5.62
2023-03-06T08:26:29.659Z,5.58
2023-03-06T08:29:01.426Z,5.66
2023-03-06T08:31:41.350Z,5.87
2023-03-06T08:34:16.216Z,6.06
2023-03-06T08:36:43.986Z,6.03
2023-03-06T08:39:12.213Z,6.13
2023-03-06T08:41:42.276Z,5.90
2023-03-06T08:44:10.991Z,5.91
2023-03-06T08:46:38.721Z,6.13
2023-03-06T08:49:06.229Z,6.08
2023-03-06T08:51:33.818Z,6.33
2023-03-06T08:54:01.257Z,6.42
2023-03-06T08:56:33.915Z,6.23
2023-03-06T08:59:05.716Z,6.36
2023-03-06T09:01:37.837Z,6.39
2023-03-06T09:04:11.679Z,6.70
2023-03-06T09:06:42.973Z,6.46
2023-03-06T09:09:10.943Z,6.63
2023-03-06T09:11:39.574Z,6.30
2023-03-06T09:14:07.422Z,6.65
2023-03-06T09:16:34.810Z,6.77
2023-03-06T09:19:02.337Z,6.67
2023-03-06T09:21:29.962Z,6.39
2023-03-06T09:23:57.450Z,6.54
2023-03-06T09:26:39.557Z,6.47
2023-03-06T09:29:12.676Z,6.73
2023-03-06T09:31:40.029Z,6.95
2023-03-06T09:34:07.340Z,6.91
2023-03-06T09:36:49.295Z,6.64
2023-03-06T09:39:21.016Z,6.88
2023-03-06T09:41:49.887Z,6.84
2023-03-06T09:44:32.129Z,6.95
2023-03-06T09:48:07.682Z,6.70
2023-03-06T09:51:09.363Z,6.88
2023-03-06T09:54:12.774Z,6.94
2023-03-06T09:56:48.837Z,7.02
2023-03-06T09:59:26.087Z,7.20
2023-03-06T10:02:45.972Z,7.37
2023-03-06T10:05:34.987Z,7.20
2023-03-06T10:08:58.030Z,7.62
2023-03-06T10:11:42.821Z,7.20
2023-03-06T10:14:48.418Z,7.22
2023-03-06T10:17:24.164Z,7.29
2023-03-06T10:19:52.458Z,7.27
2023-03-06T10:22:48.037Z,7.07
2023-03-06T10:25:53.604Z,7.36
2023-03-06T10:29:01.392Z,7.44
2023-03-06T10:31:29.371Z,7.23
2023-03-06T10:34:28.551Z,7.20
2023-03-06T10:37:16.946Z,7.11
2023-03-06T10:39:44.335Z,6.86
2023-03-06T10:42:12.186Z,7.41
2023-03-06T10:44:39.528Z,7.25
2023-03-06T10:47:36.906Z,7.07
2023-03-06T10:50:30.713Z,7.35
2023-03-06T10:53:20.023Z,7.35
2023-03-06T10:56:00.401Z,7.55
2023-03-06T10:58:32.939Z,7.54
2023-03-06T11:01:21.954Z,7.28
2023-03-06T11:03:49.897Z,7.60
2023-03-06T11:06:37.743Z,7.36
2023-03-06T11:09:25.835Z,7.30
2023-03-06T11:12:13.476Z,6.92
2023-03-06T11:14:40.985Z,7.18
2023-03-06T11:17:30.918Z,7.17
2023-03-06T11:20:52.095Z,7.20
2023-03-06T11:23:46.638Z,7.27
2023-03-06T11:26:57.854Z,7.27
2023-03-06T11:29:44.981Z,7.44
2023-03-06T11:32:23.449Z,7.11
2023-03-06T11:35:12.317Z,7.27
2023-03-06T11:38:16.859Z,7.16
2023-03-06T11:40:56.002Z,7.10
2023-03-06T11:43:44.652Z,7.16
2023-03-06T11:46:38.364Z,7.41
2023-03-06T11:49:51.717Z,7.09
2023-03-06T11:52:47.666Z,6.95
2023-03-06T11:55:47.514Z,6.88
2023-03-06T11:58:35.424Z,6.91
2023-03-06T12:01:50.193Z,7.16
2023-03-06T12:05:47.052Z,7.15
2023-03-06T12:08:54.213Z,7.20
2023-03-06T12:11:46.160Z,7.14
2023-03-06T12:15:16.451Z,7.82
2023-03-06T12:18:50.573Z,7.71
2023-03-06T12:22:21.924Z,7.54
2023-03-06T12:25:45.056Z,7.56
2023-03-06T12:29:09.735Z,7.78
2023-03-06T12:32:25.534Z,7.89
2023-03-06T12:36:14.126Z,8.24
2023-03-06T12:39:16.065Z,8.25
2023-03-06T12:42:24.148Z,8.69
2023-03-06T12:45:36.965Z,8.58
2023-03-06T12:48:26.660Z,9.27
2023-03-06T12:50:55.124Z,9.27
2023-03-06T12:53:30.902Z,8.98
2023-03-06T12:56:01.945Z,8.90
2023-03-06T12:58:29.164Z,8.94
2023-03-06T13:01:40.559Z,9.23
2023-03-06T13:05:05.021Z,9.24
2023-03-06T13:08:34.771Z,9.18
2023-03-06T13:11:58.846Z,8.84
2023-03-06T13:14:42.287Z,9.09
2023-03-06T13:17:25.795Z,8.94
2023-03-06T13:20:14.791Z,8.78
2023-03-06T13:22:47.881Z,8.67
2023-03-06T13:25:21.341Z,8.74
2023-03-06T13:28:21.712Z,8.62
2023-03-06T13:30:50.475Z,8.72
2023-03-06T13:33:30.075Z,8.71
2023-03-06T13:36:28.503Z,9.00
2023-03-06T13:39:11.866Z,8.69
2023-03-06T13:42:07.210Z,8.89
2023-03-06T13:44:43.516Z,8.64
2023-03-06T13:50:47.828Z,9.02
2023-03-06T13:54:48.662Z,9.21
2023-03-06T13:58:43.180Z,9.18
2023-03-06T14:01:55.888Z,9.10
2023-03-06T14:04:50.540Z,9.19
2023-03-06T14:07:35.734Z,8.90
2023-03-06T14:10:23.945Z,8.87
2023-03-06T14:12:51.242Z,8.70
2023-03-06T14:15:44.493Z,8.81
2023-03-06T14:18:44.125Z,8.55
2023-03-06T14:21:15.923Z,8.56
2023-03-06T14:23:45.935Z,8.50
2023-03-06T14:26:22.253Z,8.60
2023-03-06T14:28:52.460Z,8.55
2023-03-06T14:31:30.339Z,8.61
2023-03-06T14:34:01.418Z,8.81
2023-03-06T14:36:51.314Z,8.83
2023-03-06T14:39:40.430Z,8.75
2023-03-06T14:42:22.198Z,8.94
2023-03-06T14:45:18.900Z,9.28
2023-03-06T14:47:53.498Z,9.07
2023-03-06T14:50:34.025Z,9.15
2023-03-06T14:53:16.197Z,8.73
2023-03-06T14:56:06.250Z,9.05
2023-03-06T14:59:05.963Z,8.95
2023-03-06T15:01:45.431Z,8.84
2023-03-06T15:04:45.885Z,9.14
2023-03-06T15:07:34.291Z,9.24
2023-03-06T15:10:02.084Z,9.15
2023-03-06T15:12:33.968Z,8.54
2023-03-06T15:15:08.080Z,8.90
2023-03-06T15:17:46.292Z,8.50
2023-03-06T15:20:53.584Z,8.98
2023-03-06T15:23:41.377Z,9.17
2023-03-06T15:26:34.791Z,9.42
2023-03-06T15:29:11.192Z,8.98
2023-03-06T15:31:46.780Z,9.23
2023-03-06T15:34:25.569Z,9.82
2023-03-06T15:36:58.110Z,9.85
2023-03-06T15:39:41.420Z,9.10
2023-03-06T15:42:20.276Z,9.04
2023-03-06T15:45:00.027Z,9.32
2023-03-06T15:47:27.344Z,9.20
2023-03-06T15:49:55.315Z,9.31
2023-03-06T15:52:23.403Z,8.90
2023-03-06T15:54:50.907Z,8.91
2023-03-06T15:57:29.418Z,8.81
2023-03-06T15:59:58.823Z,8.95
2023-03-06T16:02:26.305Z,8.97
2023-03-06T16:04:53.791Z,8.84
2023-03-06T16:07:21.222Z,9.20
2023-03-06T16:09:48.692Z,9.49
2023-03-06T16:12:22.658Z,9.42
2023-03-06T16:14:50.235Z,9.53
2023-03-06T16:17:17.943Z,9.55
2023-03-06T16:19:45.455Z,8.78
2023-03-06T16:22:13.701Z,9.08
2023-03-06T16:24:41.911Z,8.77
2023-03-06T16:27:23.437Z,8.83
2023-03-06T16:29:50.732Z,8.62
2023-03-06T16:32:18.072Z,8.36
2023-03-06T16:34:45.409Z,8.58
2023-03-06T16:37:14.225Z,8.79
2023-03-06T16:39:41.694Z,8.93
2023-03-06T16:42:08.999Z,8.95
2023-03-06T16:44:36.435Z,9.15
2023-03-06T16:47:03.844Z,9.09
2023-03-06T16:49:31.331Z,8.54
2023-03-06T16:51:58.628Z,8.87
2023-03-06T16:54:26.250Z,8.97
2023-03-06T16:56:53.662Z,8.85
2023-03-06T16:59:21.061Z,8.86
2023-03-06T17:01:48.511Z,9.04
2023-03-06T17:04:15.871Z,9.05
2023-03-06T17:06:43.251Z,8.69
2023-03-06T17:09:10.970Z,8.75
2023-03-06T17:11:43.416Z,8.88
2023-03-06T17:14:10.712Z,8.72
2023-03-06T17:16:40.273Z,8.73
2023-03-06T17:19:08.696Z,9.05
2023-03-06T17:21:38.358Z,9.23
2023-03-06T17:24:06.559Z,9.24
2023-03-06T17:26:37.011Z,8.98
2023-03-06T17:29:06.968Z,8.77
2023-03-06T17:31:34.431Z,8.82
2023-03-06T17:34:01.802Z,9.00
2023-03-06T17:36:32.139Z,8.91
2023-03-06T17:39:02.974Z,9.00
2023-03-06T17:41:32.761Z,8.56
2023-03-06T17:44:01.675Z,8.49
2023-03-06T17:46:29.426Z,8.58
2023-03-06T17:48:56.790Z,8.86
2023-03-06T17:51:24.187Z,8.79
2023-03-06T17:53:52.284Z,8.64
2023-03-06T17:56:19.769Z,8.55
2023-03-06T17:58:47.603Z,8.24
2023-03-06T18:01:22.066Z,8.28
2023-03-06T18:03:51.483Z,8.51
2023-03-06T18:06:22.126Z,8.49
2023-03-06T18:08:52.279Z,8.57
2023-03-06T18:11:21.166Z,8.35
2023-03-06T18:13:49.384Z,8.38
2023-03-06T18:16:23.005Z,8.18
2023-03-06T18:18:56.547Z,8.15
2023-03-06T18:21:26.344Z,8.09
2023-03-06T18:23:53.983Z,8.25
2023-03-06T18:26:30.085Z,8.28
2023-03-06T18:29:04.341Z,8.33
2023-03-06T18:31:39.356Z,8.63
2023-03-06T18:34:17.829Z,8.83
2023-03-06T18:36:47.298Z,8.45
2023-03-06T18:39:15.780Z,8.51
2023-03-06T18:41:43.200Z,8.42
2023-03-06T18:44:16.285Z,8.50
2023-03-06T18:46:43.999Z,8.37
2023-03-06T18:49:13.758Z,8.34
2023-03-06T18:51:41.930Z,8.11
2023-03-06T18:54:10.608Z,8.15
2023-03-06T18:56:39.363Z,8.04
2023-03-06T18:59:07.364Z,8.00
2023-03-06T19:01:35.553Z,8.31
2023-03-06T19:04:05.583Z,7.95
2023-03-06T19:06:32.955Z,8.10
2023-03-06T19:09:01.753Z,8.16
2023-03-06T19:11:29.640Z,8.15
2023-03-06T19:13:57.127Z,8.17
2023-03-06T19:16:29.808Z,7.86
2023-03-06T19:18:57.850Z,8.14
2023-03-06T19:21:28.272Z,7.88
2023-03-06T19:23:57.253Z,7.86
2023-03-06T19:26:25.344Z,7.97
2023-03-06T19:28:52.634Z,7.78
2023-03-06T19:31:28.114Z,8.05
2023-03-06T19:33:57.197Z,8.04
2023-03-06T19:36:33.494Z,7.96
2023-03-06T19:39:05.877Z,7.68
2023-03-06T19:41:34.445Z,7.51
2023-03-06T19:44:03.390Z,7.83
2023-03-06T19:46:31.837Z,8.03
2023-03-06T19:49:06.421Z,8.01
2023-03-06T19:51:33.707Z,7.65
2023-03-06T19:54:01.036Z,7.95
2023-03-06T19:56:30.274Z,7.42
2023-03-06T19:58:57.815Z,7.52
2023-03-06T20:01:28.173Z,7.70
2023-03-06T20:04:00.154Z,7.97
2023-03-06T20:06:34.261Z,8.09
2023-03-06T20:09:07.481Z,8.02
2023-03-06T20:11:35.269Z,8.12
2023-03-06T20:14:07.115Z,8.14
2023-03-06T20:16:35.064Z,8.34
2023-03-06T20:19:03.442Z,7.99
2023-03-06T20:21:37.529Z,7.97
2023-03-06T20:24:09.244Z,7.98
2023-03-06T20:26:38.078Z,8.13
2023-03-06T20:29:05.395Z,7.94
2023-03-06T20:31:33.708Z,7.76
2023-03-06T20:34:01.167Z,7.80
2023-03-06T20:36:39.192Z,7.70
2023-03-06T20:39:16.794Z,7.48
2023-03-06T20:41:45.023Z,7.75
2023-03-06T20:44:19.341Z,8.00
2023-03-06T20:46:47.071Z,8.02
2023-03-06T20:49:14.953Z,7.90
2023-03-06T20:51:43.252Z,7.85
2023-03-06T20:54:16.305Z,7.92
2023-03-06T20:56:48.946Z,8.04
2023-03-06T20:59:16.514Z,7.88
2023-03-06T21:01:47.902Z,7.91
2023-03-06T21:04:15.816Z,7.53
2023-03-06T21:06:46.850Z,7.87
2023-03-06T21:09:17.154Z,7.87
2023-03-06T21:11:45.635Z,7.69
2023-03-06T21:14:14.312Z,7.75
2023-03-06T21:16:42.399Z,7.57
2023-03-06T21:19:10.817Z,7.64
2023-03-06T21:21:38.119Z,7.53
2023-03-06T21:24:05.838Z,7.46
2023-03-06T21:26:34.102Z,7.77
2023-03-06T21:29:03.014Z,7.79
2023-03-06T21:31:31.835Z,7.90
2023-03-06T21:34:02.508Z,7.75
2023-03-06T21:36:31.735Z,7.64
2023-03-06T21:38:59.094Z,7.83
2023-03-06T21:41:30.533Z,8.00
